Startpagina
METAR-TAF:

METAR-TAF

Vliegvelden :

Hahn, Duitsland

Flughafen Frankfurt-Hahn

breedte: 49-57N, lengte: 007-16E, hoogte: 491 m

Actueel weer

Dit bericht is 24 minuten geleden gemaakt, om 18:50 UTC
Wind 7 kt uit het westzuidwesten
Temperatuur 14°C
Vochtigheid 63%
Druk 1017 hPa
Zicht 10 km of meer
Weinig wolken op 4800 ft

METAR: EDFH 231850Z 25007KT 9999 FEW048 14/07 Q1017

Tijdstip: 21:14 (19:14 UTC)

Verwachting

Dit bericht is 2 uur en het 14 minuten geleden gemaakt, om 17:00 UTC
Verwachting geldig van 23 om 18 UTC tot 24 om 18 UTC
Wind 11 kt uit het westen
Zicht 10 km of meer
geen wolken onder 1500 m en geen cumulonimbus
Wijzigt naar
van 23 om 18 UTC tot 23 om 20 UTC
Wind 6 kt uit het westen
Wijzigt naar
van 24 om 08 UTC tot 24 om 10 UTC
Wind 11 kt uit het westen
Kans 40% :
Tijdelijke
van 24 om 11 UTC tot 24 om 17 UTC
Wind 15 kt uit het westen met uitschieters tot 25 kt

TAF: EDFH 231700Z 2318/2418 27011KT CAVOK BECMG 2318/2320 26006KT BECMG 2408/2410 26011KT PROB40 TEMPO 2411/2417 27015G25KT

Waarnemingen en weersverwachtingen van meer dan 4000 vliegvelden (METAR en TAF).

De beschikbare stations zijn de gele en rode punten op de kaart.

Ga met uw muis naar het station om de naam te zien.

Klik dan om waarnemingen en weersverwachtingen te zien.

kaart wijzigen: klik op de groene knoppen met een zwart kruis om in te zoomen, op de groene knop met een streepje om uit te zoomen of op de groene pijlen voor aangrenzende kaarten.


METAR-TAF: